sensor_id;sensor_type;location;lat;lon;timestamp;P1;durP1;ratioP1;P2;durP2;ratioP2
66946;SDS011;53853;51.982;5.928;2023-12-22T00:01:08;8.77;;;2.60;;
66946;SDS011;53853;51.982;5.928;2023-12-22T00:03:41;17.42;;;3.40;;
66946;SDS011;53853;51.982;5.928;2023-12-22T00:06:11;13.48;;;3.42;;
66946;SDS011;53853;51.982;5.928;2023-12-22T00:08:39;13.38;;;3.35;;
66946;SDS011;53853;51.982;5.928;2023-12-22T00:11:08;15.02;;;3.15;;
66946;SDS011;53853;51.982;5.928;2023-12-22T00:13:38;13.23;;;2.88;;
66946;SDS011;53853;51.982;5.928;2023-12-22T00:16:11;10.13;;;3.08;;
66946;SDS011;53853;51.982;5.928;2023-12-22T00:18:40;11.13;;;2.55;;
66946;SDS011;53853;51.982;5.928;2023-12-22T00:21:10;15.20;;;3.50;;
66946;SDS011;53853;51.982;5.928;2023-12-22T00:23:40;11.90;;;2.88;;
66946;SDS011;53853;51.982;5.928;2023-12-22T00:26:10;15.68;;;4.20;;
66946;SDS011;53853;51.982;5.928;2023-12-22T00:28:41;16.75;;;4.00;;
66946;SDS011;53853;51.982;5.928;2023-12-22T00:31:13;15.85;;;4.00;;
66946;SDS011;53853;51.982;5.928;2023-12-22T00:33:43;12.65;;;2.90;;
66946;SDS011;53853;51.982;5.928;2023-12-22T00:36:13;8.88;;;2.80;;
66946;SDS011;53853;51.982;5.928;2023-12-22T00:38:44;9.50;;;2.75;;
66946;SDS011;53853;51.982;5.928;2023-12-22T00:41:14;2.95;;;1.60;;
66946;SDS011;53853;51.982;5.928;2023-12-22T00:43:43;4.53;;;1.85;;
66946;SDS011;53853;51.982;5.928;2023-12-22T00:46:16;7.72;;;1.92;;
66946;SDS011;53853;51.982;5.928;2023-12-22T00:48:46;9.32;;;2.53;;
66946;SDS011;53853;51.982;5.928;2023-12-22T00:51:15;7.05;;;1.70;;
66946;SDS011;53853;51.982;5.928;2023-12-22T00:53:45;8.57;;;2.13;;
66946;SDS011;53853;51.982;5.928;2023-12-22T00:56:15;7.57;;;2.00;;
66946;SDS011;53853;51.982;5.928;2023-12-22T00:58:45;8.68;;;2.60;;
66946;SDS011;53853;51.982;5.928;2023-12-22T01:01:17;6.35;;;1.83;;
66946;SDS011;53853;51.982;5.928;2023-12-22T01:03:47;6.57;;;1.85;;
66946;SDS011;53853;51.982;5.928;2023-12-22T01:06:17;6.35;;;2.20;;
66946;SDS011;53853;51.982;5.928;2023-12-22T01:08:47;8.05;;;2.13;;
66946;SDS011;53853;51.982;5.928;2023-12-22T01:11:17;8.07;;;2.08;;
66946;SDS011;53853;51.982;5.928;2023-12-22T01:13:47;12.18;;;2.35;;
66946;SDS011;53853;51.982;5.928;2023-12-22T01:16:19;6.40;;;1.92;;
66946;SDS011;53853;51.982;5.928;2023-12-22T01:18:49;6.15;;;2.25;;
66946;SDS011;53853;51.982;5.928;2023-12-22T01:21:19;10.57;;;2.13;;
66946;SDS011;53853;51.982;5.928;2023-12-22T01:23:49;11.30;;;2.10;;
66946;SDS011;53853;51.982;5.928;2023-12-22T01:26:19;6.80;;;1.90;;
66946;SDS011;53853;51.982;5.928;2023-12-22T01:28:49;6.88;;;1.92;;
66946;SDS011;53853;51.982;5.928;2023-12-22T01:31:21;5.75;;;2.38;;
66946;SDS011;53853;51.982;5.928;2023-12-22T01:33:51;3.95;;;1.83;;
66946;SDS011;53853;51.982;5.928;2023-12-22T01:36:21;4.95;;;1.98;;
66946;SDS011;53853;51.982;5.928;2023-12-22T01:38:51;3.20;;;1.52;;
66946;SDS011;53853;51.982;5.928;2023-12-22T01:41:21;6.78;;;1.85;;
66946;SDS011;53853;51.982;5.928;2023-12-22T01:43:50;5.05;;;1.67;;
66946;SDS011;53853;51.982;5.928;2023-12-22T01:46:23;5.85;;;2.00;;
66946;SDS011;53853;51.982;5.928;2023-12-22T01:48:53;5.82;;;1.40;;
66946;SDS011;53853;51.982;5.928;2023-12-22T01:51:23;14.27;;;3.47;;
66946;SDS011;53853;51.982;5.928;2023-12-22T01:53:53;5.05;;;1.55;;
66946;SDS011;53853;51.982;5.928;2023-12-22T01:56:23;11.77;;;2.33;;
66946;SDS011;53853;51.982;5.928;2023-12-22T01:58:55;8.45;;;2.22;;
66946;SDS011;53853;51.982;5.928;2023-12-22T02:01:30;8.85;;;2.35;;
66946;SDS011;53853;51.982;5.928;2023-12-22T02:04:01;9.65;;;2.63;;
66946;SDS011;53853;51.982;5.928;2023-12-22T02:06:32;7.85;;;1.95;;
66946;SDS011;53853;51.982;5.928;2023-12-22T02:09:03;7.13;;;2.20;;
66946;SDS011;53853;51.982;5.928;2023-12-22T02:11:33;10.38;;;3.08;;
66946;SDS011;53853;51.982;5.928;2023-12-22T02:14:03;5.72;;;2.67;;
66946;SDS011;53853;51.982;5.928;2023-12-22T02:16:37;10.18;;;2.75;;
66946;SDS011;53853;51.982;5.928;2023-12-22T02:19:15;9.52;;;2.60;;
66946;SDS011;53853;51.982;5.928;2023-12-22T02:22:02;14.48;;;3.38;;
66946;SDS011;53853;51.982;5.928;2023-12-22T02:24:36;7.35;;;2.78;;
66946;SDS011;53853;51.982;5.928;2023-12-22T02:27:08;11.02;;;3.60;;
66946;SDS011;53853;51.982;5.928;2023-12-22T02:29:46;9.90;;;2.58;;
66946;SDS011;53853;51.982;5.928;2023-12-22T02:32:21;13.55;;;3.35;;
66946;SDS011;53853;51.982;5.928;2023-12-22T02:34:56;10.23;;;2.38;;
66946;SDS011;53853;51.982;5.928;2023-12-22T02:37:28;6.13;;;2.47;;
66946;SDS011;53853;51.982;5.928;2023-12-22T02:40:01;12.30;;;2.00;;
66946;SDS011;53853;51.982;5.928;2023-12-22T02:42:32;11.75;;;2.85;;
66946;SDS011;53853;51.982;5.928;2023-12-22T02:45:03;16.77;;;3.97;;
66946;SDS011;53853;51.982;5.928;2023-12-22T02:47:33;10.35;;;2.63;;
66946;SDS011;53853;51.982;5.928;2023-12-22T02:50:03;13.05;;;3.17;;
66946;SDS011;53853;51.982;5.928;2023-12-22T02:52:34;12.68;;;3.03;;
66946;SDS011;53853;51.982;5.928;2023-12-22T02:55:07;13.55;;;3.28;;
66946;SDS011;53853;51.982;5.928;2023-12-22T02:57:37;15.95;;;3.38;;
66946;SDS011;53853;51.982;5.928;2023-12-22T03:00:07;13.95;;;3.42;;
66946;SDS011;53853;51.982;5.928;2023-12-22T03:02:38;6.50;;;2.50;;
66946;SDS011;53853;51.982;5.928;2023-12-22T03:05:08;11.63;;;2.92;;
66946;SDS011;53853;51.982;5.928;2023-12-22T03:07:37;10.80;;;2.70;;
66946;SDS011;53853;51.982;5.928;2023-12-22T03:10:08;10.70;;;3.40;;
66946;SDS011;53853;51.982;5.928;2023-12-22T03:12:37;15.65;;;2.85;;
66946;SDS011;53853;51.982;5.928;2023-12-22T03:15:08;11.88;;;3.08;;
66946;SDS011;53853;51.982;5.928;2023-12-22T03:17:38;19.80;;;3.95;;
66946;SDS011;53853;51.982;5.928;2023-12-22T03:20:08;16.58;;;3.90;;
66946;SDS011;53853;51.982;5.928;2023-12-22T03:22:38;16.20;;;3.72;;
66946;SDS011;53853;51.982;5.928;2023-12-22T03:25:11;17.85;;;3.13;;
66946;SDS011;53853;51.982;5.928;2023-12-22T03:27:41;10.90;;;2.38;;
66946;SDS011;53853;51.982;5.928;2023-12-22T03:30:11;11.20;;;1.92;;
66946;SDS011;53853;51.982;5.928;2023-12-22T03:32:41;11.90;;;2.28;;
66946;SDS011;53853;51.982;5.928;2023-12-22T03:35:11;6.13;;;2.03;;
66946;SDS011;53853;51.982;5.928;2023-12-22T03:37:41;8.35;;;1.85;;
66946;SDS011;53853;51.982;5.928;2023-12-22T03:40:13;8.63;;;2.20;;
66946;SDS011;53853;51.982;5.928;2023-12-22T03:42:43;8.05;;;2.72;;
66946;SDS011;53853;51.982;5.928;2023-12-22T03:45:13;5.38;;;1.48;;
66946;SDS011;53853;51.982;5.928;2023-12-22T03:47:43;10.80;;;2.25;;
66946;SDS011;53853;51.982;5.928;2023-12-22T03:50:13;9.68;;;2.55;;
66946;SDS011;53853;51.982;5.928;2023-12-22T03:52:44;8.38;;;2.13;;
66946;SDS011;53853;51.982;5.928;2023-12-22T03:55:16;8.00;;;1.77;;
66946;SDS011;53853;51.982;5.928;2023-12-22T03:57:46;6.20;;;1.73;;
66946;SDS011;53853;51.982;5.928;2023-12-22T04:00:16;8.38;;;1.42;;
66946;SDS011;53853;51.982;5.928;2023-12-22T04:02:46;4.57;;;1.77;;
66946;SDS011;53853;51.982;5.928;2023-12-22T04:05:16;5.32;;;1.40;;
66946;SDS011;53853;51.982;5.928;2023-12-22T04:07:46;7.88;;;2.05;;
66946;SDS011;53853;51.982;5.928;2023-12-22T04:10:18;7.28;;;2.58;;
66946;SDS011;53853;51.982;5.928;2023-12-22T04:12:48;9.57;;;2.33;;
66946;SDS011;53853;51.982;5.928;2023-12-22T04:15:18;7.25;;;2.00;;
66946;SDS011;53853;51.982;5.928;2023-12-22T04:17:48;7.45;;;2.25;;
66946;SDS011;53853;51.982;5.928;2023-12-22T04:20:18;8.82;;;2.20;;
66946;SDS011;53853;51.982;5.928;2023-12-22T04:22:47;11.23;;;2.00;;
66946;SDS011;53853;51.982;5.928;2023-12-22T04:25:20;7.88;;;2.05;;
66946;SDS011;53853;51.982;5.928;2023-12-22T04:27:51;7.85;;;2.15;;
66946;SDS011;53853;51.982;5.928;2023-12-22T04:30:20;7.15;;;2.03;;
66946;SDS011;53853;51.982;5.928;2023-12-22T04:32:52;7.93;;;3.03;;
66946;SDS011;53853;51.982;5.928;2023-12-22T04:35:22;8.98;;;1.98;;
66946;SDS011;53853;51.982;5.928;2023-12-22T04:37:51;7.68;;;2.13;;
66946;SDS011;53853;51.982;5.928;2023-12-22T04:40:24;12.80;;;3.53;;
66946;SDS011;53853;51.982;5.928;2023-12-22T04:42:54;9.75;;;2.30;;
66946;SDS011;53853;51.982;5.928;2023-12-22T04:45:23;14.63;;;3.33;;
66946;SDS011;53853;51.982;5.928;2023-12-22T04:47:53;13.98;;;3.95;;
66946;SDS011;53853;51.982;5.928;2023-12-22T04:50:23;13.73;;;2.90;;
66946;SDS011;53853;51.982;5.928;2023-12-22T04:52:53;10.65;;;2.92;;
66946;SDS011;53853;51.982;5.928;2023-12-22T04:55:25;9.85;;;2.38;;
66946;SDS011;53853;51.982;5.928;2023-12-22T04:57:55;14.15;;;3.25;;
66946;SDS011;53853;51.982;5.928;2023-12-22T05:00:25;15.25;;;3.40;;
66946;SDS011;53853;51.982;5.928;2023-12-22T05:02:55;13.05;;;2.97;;
66946;SDS011;53853;51.982;5.928;2023-12-22T05:05:24;8.50;;;2.80;;
66946;SDS011;53853;51.982;5.928;2023-12-22T05:07:54;10.32;;;3.08;;
66946;SDS011;53853;51.982;5.928;2023-12-22T05:10:27;14.98;;;3.03;;
66946;SDS011;53853;51.982;5.928;2023-12-22T05:12:57;10.13;;;2.83;;
66946;SDS011;53853;51.982;5.928;2023-12-22T05:15:27;8.90;;;2.67;;
66946;SDS011;53853;51.982;5.928;2023-12-22T05:17:56;18.23;;;4.20;;
66946;SDS011;53853;51.982;5.928;2023-12-22T05:20:26;7.22;;;2.60;;
66946;SDS011;53853;51.982;5.928;2023-12-22T05:22:56;16.50;;;3.17;;
66946;SDS011;53853;51.982;5.928;2023-12-22T05:25:29;14.90;;;3.45;;
66946;SDS011;53853;51.982;5.928;2023-12-22T05:27:58;9.13;;;3.17;;
66946;SDS011;53853;51.982;5.928;2023-12-22T05:30:28;13.32;;;3.75;;
66946;SDS011;53853;51.982;5.928;2023-12-22T05:32:58;9.80;;;2.72;;
66946;SDS011;53853;51.982;5.928;2023-12-22T05:35:28;8.07;;;2.65;;
66946;SDS011;53853;51.982;5.928;2023-12-22T05:37:58;6.97;;;2.65;;
66946;SDS011;53853;51.982;5.928;2023-12-22T05:40:31;12.98;;;2.65;;
66946;SDS011;53853;51.982;5.928;2023-12-22T05:43:01;6.40;;;2.73;;
66946;SDS011;53853;51.982;5.928;2023-12-22T05:45:31;15.48;;;3.42;;
66946;SDS011;53853;51.982;5.928;2023-12-22T05:48:01;12.35;;;3.10;;
66946;SDS011;53853;51.982;5.928;2023-12-22T05:50:31;10.43;;;2.78;;
66946;SDS011;53853;51.982;5.928;2023-12-22T05:53:01;8.15;;;2.88;;
66946;SDS011;53853;51.982;5.928;2023-12-22T05:55:33;6.50;;;3.00;;
66946;SDS011;53853;51.982;5.928;2023-12-22T05:58:03;15.52;;;3.47;;
66946;SDS011;53853;51.982;5.928;2023-12-22T06:00:34;14.25;;;3.25;;
66946;SDS011;53853;51.982;5.928;2023-12-22T06:03:04;19.30;;;3.67;;
66946;SDS011;53853;51.982;5.928;2023-12-22T06:05:34;12.65;;;3.50;;
66946;SDS011;53853;51.982;5.928;2023-12-22T06:08:04;12.38;;;3.55;;
66946;SDS011;53853;51.982;5.928;2023-12-22T06:10:38;21.55;;;4.10;;
66946;SDS011;53853;51.982;5.928;2023-12-22T06:13:07;10.45;;;3.35;;
66946;SDS011;53853;51.982;5.928;2023-12-22T06:15:37;16.85;;;3.90;;
66946;SDS011;53853;51.982;5.928;2023-12-22T06:18:07;14.95;;;4.75;;
66946;SDS011;53853;51.982;5.928;2023-12-22T06:20:37;8.27;;;2.60;;
66946;SDS011;53853;51.982;5.928;2023-12-22T06:23:06;19.17;;;4.70;;
66946;SDS011;53853;51.982;5.928;2023-12-22T06:25:39;17.25;;;3.72;;
66946;SDS011;53853;51.982;5.928;2023-12-22T06:28:09;16.48;;;4.93;;
66946;SDS011;53853;51.982;5.928;2023-12-22T06:30:38;15.70;;;4.80;;
66946;SDS011;53853;51.982;5.928;2023-12-22T06:33:08;23.67;;;5.90;;
66946;SDS011;53853;51.982;5.928;2023-12-22T06:35:38;15.50;;;4.22;;
66946;SDS011;53853;51.982;5.928;2023-12-22T06:38:10;16.63;;;4.47;;
66946;SDS011;53853;51.982;5.928;2023-12-22T06:40:43;22.98;;;4.65;;
66946;SDS011;53853;51.982;5.928;2023-12-22T06:43:12;9.50;;;3.72;;
66946;SDS011;53853;51.982;5.928;2023-12-22T06:45:42;10.68;;;3.97;;
66946;SDS011;53853;51.982;5.928;2023-12-22T06:48:12;16.77;;;4.60;;
66946;SDS011;53853;51.982;5.928;2023-12-22T06:50:42;17.25;;;3.88;;
66946;SDS011;53853;51.982;5.928;2023-12-22T06:53:13;13.10;;;4.10;;
66946;SDS011;53853;51.982;5.928;2023-12-22T06:55:45;20.83;;;5.00;;
66946;SDS011;53853;51.982;5.928;2023-12-22T06:58:15;10.75;;;3.65;;
66946;SDS011;53853;51.982;5.928;2023-12-22T07:00:47;15.13;;;4.13;;
66946;SDS011;53853;51.982;5.928;2023-12-22T07:03:16;20.55;;;4.25;;
66946;SDS011;53853;51.982;5.928;2023-12-22T07:05:46;13.80;;;3.45;;
66946;SDS011;53853;51.982;5.928;2023-12-22T07:08:16;19.20;;;4.88;;
66946;SDS011;53853;51.982;5.928;2023-12-22T07:10:48;13.02;;;3.72;;
66946;SDS011;53853;51.982;5.928;2023-12-22T07:13:18;16.42;;;4.30;;
66946;SDS011;53853;51.982;5.928;2023-12-22T07:15:48;18.65;;;4.60;;
66946;SDS011;53853;51.982;5.928;2023-12-22T07:18:18;15.77;;;4.35;;
66946;SDS011;53853;51.982;5.928;2023-12-22T07:20:48;11.60;;;3.50;;
66946;SDS011;53853;51.982;5.928;2023-12-22T07:23:17;16.90;;;4.13;;
66946;SDS011;53853;51.982;5.928;2023-12-22T07:25:51;16.95;;;5.00;;
66946;SDS011;53853;51.982;5.928;2023-12-22T07:28:20;15.55;;;4.07;;
66946;SDS011;53853;51.982;5.928;2023-12-22T07:30:50;15.27;;;4.22;;
66946;SDS011;53853;51.982;5.928;2023-12-22T07:33:22;18.98;;;5.15;;
66946;SDS011;53853;51.982;5.928;2023-12-22T07:35:52;17.08;;;4.75;;
66946;SDS011;53853;51.982;5.928;2023-12-22T07:38:22;21.35;;;5.10;;
66946;SDS011;53853;51.982;5.928;2023-12-22T07:40:54;18.30;;;4.78;;
66946;SDS011;53853;51.982;5.928;2023-12-22T07:43:24;17.05;;;5.03;;
66946;SDS011;53853;51.982;5.928;2023-12-22T07:45:55;25.05;;;5.72;;
66946;SDS011;53853;51.982;5.928;2023-12-22T07:48:25;20.67;;;5.32;;
66946;SDS011;53853;51.982;5.928;2023-12-22T07:50:55;19.42;;;5.38;;
66946;SDS011;53853;51.982;5.928;2023-12-22T07:53:24;26.80;;;6.20;;
66946;SDS011;53853;51.982;5.928;2023-12-22T07:55:57;15.75;;;4.13;;
66946;SDS011;53853;51.982;5.928;2023-12-22T07:58:27;14.73;;;4.57;;
66946;SDS011;53853;51.982;5.928;2023-12-22T08:00:58;23.33;;;5.68;;
66946;SDS011;53853;51.982;5.928;2023-12-22T08:03:28;26.25;;;6.55;;
66946;SDS011;53853;51.982;5.928;2023-12-22T08:05:58;20.38;;;5.75;;
66946;SDS011;53853;51.982;5.928;2023-12-22T08:08:28;20.48;;;5.00;;
66946;SDS011;53853;51.982;5.928;2023-12-22T08:11:01;22.50;;;6.55;;
66946;SDS011;53853;51.982;5.928;2023-12-22T08:16:03;28.33;;;6.97;;
66946;SDS011;53853;51.982;5.928;2023-12-22T08:18:33;22.20;;;7.20;;
66946;SDS011;53853;51.982;5.928;2023-12-22T08:21:03;23.25;;;5.38;;
66946;SDS011;53853;51.982;5.928;2023-12-22T08:23:33;16.45;;;4.18;;
66946;SDS011;53853;51.982;5.928;2023-12-22T08:26:05;17.92;;;4.47;;
66946;SDS011;53853;51.982;5.928;2023-12-22T08:28:35;20.35;;;4.30;;
66946;SDS011;53853;51.982;5.928;2023-12-22T08:31:05;15.05;;;4.95;;
66946;SDS011;53853;51.982;5.928;2023-12-22T08:33:35;11.98;;;3.63;;
66946;SDS011;53853;51.982;5.928;2023-12-22T08:36:06;17.23;;;4.55;;
66946;SDS011;53853;51.982;5.928;2023-12-22T08:38:36;18.02;;;4.22;;
66946;SDS011;53853;51.982;5.928;2023-12-22T08:41:09;13.98;;;4.30;;
66946;SDS011;53853;51.982;5.928;2023-12-22T08:43:40;17.00;;;4.03;;
66946;SDS011;53853;51.982;5.928;2023-12-22T08:46:10;13.30;;;4.07;;
66946;SDS011;53853;51.982;5.928;2023-12-22T08:48:41;16.92;;;4.45;;
66946;SDS011;53853;51.982;5.928;2023-12-22T08:51:11;17.25;;;5.28;;
66946;SDS011;53853;51.982;5.928;2023-12-22T08:53:40;16.65;;;5.28;;
66946;SDS011;53853;51.982;5.928;2023-12-22T08:56:13;22.92;;;6.05;;
66946;SDS011;53853;51.982;5.928;2023-12-22T08:58:43;23.85;;;6.03;;
66946;SDS011;53853;51.982;5.928;2023-12-22T09:01:14;20.05;;;5.13;;
66946;SDS011;53853;51.982;5.928;2023-12-22T09:03:44;19.77;;;5.80;;
66946;SDS011;53853;51.982;5.928;2023-12-22T09:06:14;20.58;;;5.22;;
66946;SDS011;53853;51.982;5.928;2023-12-22T09:08:44;14.63;;;4.22;;
66946;SDS011;53853;51.982;5.928;2023-12-22T09:11:20;19.02;;;5.38;;
66946;SDS011;53853;51.982;5.928;2023-12-22T09:13:51;21.45;;;4.60;;
66946;SDS011;53853;51.982;5.928;2023-12-22T09:16:21;15.75;;;4.95;;
66946;SDS011;53853;51.982;5.928;2023-12-22T09:18:51;17.02;;;4.10;;
66946;SDS011;53853;51.982;5.928;2023-12-22T09:21:21;19.88;;;4.63;;
66946;SDS011;53853;51.982;5.928;2023-12-22T09:23:52;15.48;;;3.63;;
66946;SDS011;53853;51.982;5.928;2023-12-22T09:26:24;20.15;;;5.75;;
66946;SDS011;53853;51.982;5.928;2023-12-22T09:28:54;18.27;;;3.83;;
66946;SDS011;53853;51.982;5.928;2023-12-22T09:31:24;12.65;;;3.65;;
66946;SDS011;53853;51.982;5.928;2023-12-22T09:33:54;10.32;;;3.30;;
66946;SDS011;53853;51.982;5.928;2023-12-22T09:36:24;16.05;;;4.00;;
66946;SDS011;53853;51.982;5.928;2023-12-22T09:38:54;14.52;;;3.92;;
66946;SDS011;53853;51.982;5.928;2023-12-22T09:41:26;9.68;;;3.60;;
66946;SDS011;53853;51.982;5.928;2023-12-22T09:43:56;11.77;;;3.40;;
66946;SDS011;53853;51.982;5.928;2023-12-22T09:46:27;14.20;;;3.67;;
66946;SDS011;53853;51.982;5.928;2023-12-22T09:48:59;15.13;;;3.80;;
66946;SDS011;53853;51.982;5.928;2023-12-22T09:51:31;13.75;;;3.45;;
66946;SDS011;53853;51.982;5.928;2023-12-22T09:54:02;12.18;;;3.22;;
66946;SDS011;53853;51.982;5.928;2023-12-22T09:56:36;12.48;;;3.00;;
66946;SDS011;53853;51.982;5.928;2023-12-22T09:59:09;12.65;;;2.67;;
66946;SDS011;53853;51.982;5.928;2023-12-22T10:01:41;7.10;;;1.90;;
66946;SDS011;53853;51.982;5.928;2023-12-22T10:04:13;8.13;;;2.03;;
66946;SDS011;53853;51.982;5.928;2023-12-22T10:06:43;5.18;;;1.73;;
66946;SDS011;53853;51.982;5.928;2023-12-22T10:09:16;5.72;;;1.55;;
66946;SDS011;53853;51.982;5.928;2023-12-22T10:11:48;7.60;;;1.88;;
66946;SDS011;53853;51.982;5.928;2023-12-22T10:14:20;3.67;;;1.40;;
66946;SDS011;53853;51.982;5.928;2023-12-22T10:16:52;6.57;;;2.00;;
66946;SDS011;53853;51.982;5.928;2023-12-22T10:19:22;3.95;;;1.70;;
66946;SDS011;53853;51.982;5.928;2023-12-22T10:21:52;3.08;;;1.38;;
66946;SDS011;53853;51.982;5.928;2023-12-22T10:27:11;5.25;;;1.73;;
66946;SDS011;53853;51.982;5.928;2023-12-22T10:29:42;5.93;;;1.95;;
66946;SDS011;53853;51.982;5.928;2023-12-22T10:32:12;7.22;;;1.70;;
66946;SDS011;53853;51.982;5.928;2023-12-22T10:34:42;7.53;;;2.17;;
66946;SDS011;53853;51.982;5.928;2023-12-22T10:37:11;7.20;;;2.53;;
66946;SDS011;53853;51.982;5.928;2023-12-22T10:39:41;5.10;;;1.60;;
66946;SDS011;53853;51.982;5.928;2023-12-22T10:42:16;6.57;;;3.20;;
66946;SDS011;53853;51.982;5.928;2023-12-22T10:44:46;11.02;;;2.92;;
66946;SDS011;53853;51.982;5.928;2023-12-22T10:47:17;8.30;;;2.08;;
66946;SDS011;53853;51.982;5.928;2023-12-22T10:49:47;6.63;;;3.53;;
66946;SDS011;53853;51.982;5.928;2023-12-22T10:52:17;11.55;;;3.38;;
66946;SDS011;53853;51.982;5.928;2023-12-22T10:54:47;10.20;;;2.92;;
66946;SDS011;53853;51.982;5.928;2023-12-22T10:57:20;9.40;;;3.22;;
66946;SDS011;53853;51.982;5.928;2023-12-22T10:59:50;6.03;;;1.95;;
66946;SDS011;53853;51.982;5.928;2023-12-22T11:02:21;15.25;;;3.92;;
66946;SDS011;53853;51.982;5.928;2023-12-22T11:04:56;11.40;;;3.75;;
66946;SDS011;53853;51.982;5.928;2023-12-22T11:07:31;6.40;;;2.63;;
66946;SDS011;53853;51.982;5.928;2023-12-22T11:10:03;12.98;;;3.95;;
66946;SDS011;53853;51.982;5.928;2023-12-22T11:12:38;4.97;;;2.20;;
66946;SDS011;53853;51.982;5.928;2023-12-22T11:15:08;11.38;;;2.65;;
66946;SDS011;53853;51.982;5.928;2023-12-22T11:17:38;6.95;;;1.90;;
66946;SDS011;53853;51.982;5.928;2023-12-22T11:20:10;11.35;;;2.70;;
66946;SDS011;53853;51.982;5.928;2023-12-22T11:22:42;7.10;;;2.75;;
66946;SDS011;53853;51.982;5.928;2023-12-22T11:25:13;8.57;;;2.10;;
66946;SDS011;53853;51.982;5.928;2023-12-22T11:27:46;5.10;;;1.90;;
66946;SDS011;53853;51.982;5.928;2023-12-22T11:30:16;5.97;;;2.20;;
66946;SDS011;53853;51.982;5.928;2023-12-22T11:32:49;9.52;;;2.47;;
66946;SDS011;53853;51.982;5.928;2023-12-22T11:35:21;7.68;;;2.30;;
66946;SDS011;53853;51.982;5.928;2023-12-22T11:37:52;8.45;;;2.40;;
66946;SDS011;53853;51.982;5.928;2023-12-22T11:40:23;12.93;;;3.10;;
66946;SDS011;53853;51.982;5.928;2023-12-22T11:42:55;6.97;;;2.10;;
66946;SDS011;53853;51.982;5.928;2023-12-22T11:45:29;9.05;;;3.25;;
66946;SDS011;53853;51.982;5.928;2023-12-22T11:48:04;7.97;;;2.05;;
66946;SDS011;53853;51.982;5.928;2023-12-22T11:50:36;5.25;;;2.10;;
66946;SDS011;53853;51.982;5.928;2023-12-22T11:53:19;5.97;;;2.53;;
66946;SDS011;53853;51.982;5.928;2023-12-22T11:55:56;11.15;;;2.53;;
66946;SDS011;53853;51.982;5.928;2023-12-22T11:58:36;10.73;;;2.72;;
66946;SDS011;53853;51.982;5.928;2023-12-22T12:01:08;10.07;;;2.55;;
66946;SDS011;53853;51.982;5.928;2023-12-22T12:03:41;8.38;;;2.13;;
66946;SDS011;53853;51.982;5.928;2023-12-22T12:06:23;9.30;;;2.40;;
66946;SDS011;53853;51.982;5.928;2023-12-22T12:09:04;10.90;;;2.92;;
66946;SDS011;53853;51.982;5.928;2023-12-22T12:14:43;11.73;;;3.03;;
66946;SDS011;53853;51.982;5.928;2023-12-22T12:17:15;8.68;;;2.45;;
66946;SDS011;53853;51.982;5.928;2023-12-22T12:19:47;7.45;;;2.22;;
66946;SDS011;53853;51.982;5.928;2023-12-22T12:22:17;9.43;;;3.00;;
66946;SDS011;53853;51.982;5.928;2023-12-22T12:24:50;11.93;;;2.42;;
66946;SDS011;53853;51.982;5.928;2023-12-22T12:27:20;13.18;;;2.45;;
66946;SDS011;53853;51.982;5.928;2023-12-22T12:29:53;6.70;;;2.20;;
66946;SDS011;53853;51.982;5.928;2023-12-22T12:32:23;5.90;;;1.77;;
66946;SDS011;53853;51.982;5.928;2023-12-22T12:34:54;13.80;;;2.88;;
66946;SDS011;53853;51.982;5.928;2023-12-22T12:37:25;10.95;;;2.65;;
66946;SDS011;53853;51.982;5.928;2023-12-22T12:39:57;11.68;;;2.92;;
66946;SDS011;53853;51.982;5.928;2023-12-22T12:42:31;8.38;;;2.88;;
66946;SDS011;53853;51.982;5.928;2023-12-22T12:45:07;10.85;;;2.42;;
66946;SDS011;53853;51.982;5.928;2023-12-22T12:47:37;9.20;;;2.30;;
66946;SDS011;53853;51.982;5.928;2023-12-22T12:50:07;11.15;;;2.78;;
66946;SDS011;53853;51.982;5.928;2023-12-22T12:52:37;14.30;;;2.97;;
66946;SDS011;53853;51.982;5.928;2023-12-22T12:55:08;8.93;;;2.63;;
66946;SDS011;53853;51.982;5.928;2023-12-22T12:57:39;8.25;;;2.75;;
66946;SDS011;53853;51.982;5.928;2023-12-22T13:00:15;5.32;;;1.83;;
66946;SDS011;53853;51.982;5.928;2023-12-22T13:02:45;9.02;;;2.08;;
66946;SDS011;53853;51.982;5.928;2023-12-22T13:05:20;6.70;;;2.20;;
66946;SDS011;53853;51.982;5.928;2023-12-22T13:07:50;7.32;;;2.55;;
66946;SDS011;53853;51.982;5.928;2023-12-22T13:10:20;7.20;;;2.45;;
66946;SDS011;53853;51.982;5.928;2023-12-22T13:12:50;8.02;;;2.05;;
66946;SDS011;53853;51.982;5.928;2023-12-22T13:15:23;7.82;;;2.10;;
66946;SDS011;53853;51.982;5.928;2023-12-22T13:17:53;8.82;;;2.60;;
66946;SDS011;53853;51.982;5.928;2023-12-22T13:20:24;5.20;;;2.15;;
66946;SDS011;53853;51.982;5.928;2023-12-22T13:22:54;6.85;;;2.05;;
66946;SDS011;53853;51.982;5.928;2023-12-22T13:25:24;9.85;;;2.85;;
66946;SDS011;53853;51.982;5.928;2023-12-22T13:27:55;8.65;;;2.67;;
66946;SDS011;53853;51.982;5.928;2023-12-22T13:30:34;6.47;;;2.53;;
66946;SDS011;53853;51.982;5.928;2023-12-22T13:33:06;7.53;;;2.38;;
66946;SDS011;53853;51.982;5.928;2023-12-22T13:35:36;10.00;;;2.42;;
66946;SDS011;53853;51.982;5.928;2023-12-22T13:38:07;8.07;;;2.55;;
66946;SDS011;53853;51.982;5.928;2023-12-22T13:40:37;7.28;;;2.40;;
66946;SDS011;53853;51.982;5.928;2023-12-22T13:43:07;10.23;;;2.38;;
66946;SDS011;53853;51.982;5.928;2023-12-22T13:45:40;9.70;;;3.03;;
66946;SDS011;53853;51.982;5.928;2023-12-22T13:48:10;10.82;;;2.55;;
66946;SDS011;53853;51.982;5.928;2023-12-22T13:50:40;9.40;;;2.28;;
66946;SDS011;53853;51.982;5.928;2023-12-22T13:53:10;8.95;;;3.00;;
66946;SDS011;53853;51.982;5.928;2023-12-22T13:55:40;7.75;;;2.33;;
66946;SDS011;53853;51.982;5.928;2023-12-22T13:58:10;10.77;;;3.40;;
66946;SDS011;53853;51.982;5.928;2023-12-22T14:00:43;8.35;;;2.50;;
66946;SDS011;53853;51.982;5.928;2023-12-22T14:03:13;7.15;;;2.17;;
66946;SDS011;53853;51.982;5.928;2023-12-22T14:05:47;9.25;;;2.05;;
66946;SDS011;53853;51.982;5.928;2023-12-22T14:08:17;5.75;;;1.90;;
66946;SDS011;53853;51.982;5.928;2023-12-22T14:10:47;10.27;;;1.92;;
66946;SDS011;53853;51.982;5.928;2023-12-22T14:13:17;10.77;;;3.38;;
66946;SDS011;53853;51.982;5.928;2023-12-22T14:15:50;6.07;;;2.50;;
66946;SDS011;53853;51.982;5.928;2023-12-22T14:18:19;8.57;;;2.65;;
66946;SDS011;53853;51.982;5.928;2023-12-22T14:20:49;10.50;;;2.72;;
66946;SDS011;53853;51.982;5.928;2023-12-22T14:23:19;10.23;;;3.17;;
66946;SDS011;53853;51.982;5.928;2023-12-22T14:25:49;12.82;;;2.65;;
66946;SDS011;53853;51.982;5.928;2023-12-22T14:28:19;10.00;;;2.20;;
66946;SDS011;53853;51.982;5.928;2023-12-22T14:30:51;9.48;;;2.78;;
66946;SDS011;53853;51.982;5.928;2023-12-22T14:33:21;6.65;;;1.60;;
66946;SDS011;53853;51.982;5.928;2023-12-22T14:35:51;11.30;;;2.97;;
66946;SDS011;53853;51.982;5.928;2023-12-22T14:38:21;6.63;;;2.20;;
66946;SDS011;53853;51.982;5.928;2023-12-22T14:40:51;7.18;;;2.30;;
66946;SDS011;53853;51.982;5.928;2023-12-22T14:43:20;11.25;;;2.85;;
66946;SDS011;53853;51.982;5.928;2023-12-22T14:45:53;11.70;;;2.95;;
66946;SDS011;53853;51.982;5.928;2023-12-22T14:48:23;10.05;;;2.22;;
66946;SDS011;53853;51.982;5.928;2023-12-22T14:50:53;12.13;;;3.20;;
66946;SDS011;53853;51.982;5.928;2023-12-22T14:53:23;9.32;;;3.25;;
66946;SDS011;53853;51.982;5.928;2023-12-22T14:55:54;11.52;;;2.72;;
66946;SDS011;53853;51.982;5.928;2023-12-22T14:58:25;8.35;;;2.75;;
66946;SDS011;53853;51.982;5.928;2023-12-22T15:00:58;11.23;;;3.53;;
66946;SDS011;53853;51.982;5.928;2023-12-22T15:03:28;9.80;;;3.13;;
66946;SDS011;53853;51.982;5.928;2023-12-22T15:05:58;15.38;;;3.30;;
66946;SDS011;53853;51.982;5.928;2023-12-22T15:08:30;11.05;;;2.85;;
66946;SDS011;53853;51.982;5.928;2023-12-22T15:11:00;13.10;;;3.33;;